createdAt,value
2024-02-15T00:00:24.006Z,8.48
2024-02-15T00:02:51.216Z,8.90
2024-02-15T00:05:18.468Z,8.85
2024-02-15T00:07:45.683Z,9.10
2024-02-15T00:10:13.022Z,8.25
2024-02-15T00:12:40.320Z,8.82
2024-02-15T00:15:07.946Z,8.55
2024-02-15T00:17:36.955Z,8.35
2024-02-15T00:20:10.672Z,8.85
2024-02-15T00:22:38.492Z,9.52
2024-02-15T00:25:07.327Z,10.57
2024-02-15T00:27:35.843Z,9.30
2024-02-15T00:30:06.469Z,10.05
2024-02-15T00:32:37.944Z,9.77
2024-02-15T00:35:11.019Z,9.75
2024-02-15T00:37:39.347Z,10.37
2024-02-15T00:40:08.360Z,9.73
2024-02-15T00:42:35.589Z,10.10
2024-02-15T00:45:03.264Z,9.98
2024-02-15T00:47:31.178Z,10.73
2024-02-15T00:49:58.477Z,10.55
2024-02-15T00:52:26.813Z,10.88
2024-02-15T00:54:54.217Z,11.50
2024-02-15T00:57:21.547Z,11.57
2024-02-15T00:59:49.810Z,10.43
2024-02-15T01:02:17.023Z,11.85
2024-02-15T01:04:46.541Z,11.05
2024-02-15T01:07:14.627Z,10.70
2024-02-15T01:09:41.834Z,11.93
2024-02-15T01:12:09.169Z,11.85
2024-02-15T01:14:36.479Z,11.30
2024-02-15T01:17:03.742Z,12.15
2024-02-15T01:19:30.974Z,11.65
2024-02-15T01:22:00.746Z,11.25
2024-02-15T01:24:28.117Z,9.75
2024-02-15T01:26:56.234Z,10.48
2024-02-15T01:29:23.660Z,10.02
2024-02-15T01:31:50.907Z,10.40
2024-02-15T01:34:18.409Z,10.88
2024-02-15T01:36:49.134Z,8.90
2024-02-15T01:39:16.453Z,9.32
2024-02-15T01:41:49.596Z,9.55
2024-02-15T01:44:16.922Z,11.25
2024-02-15T01:46:44.503Z,9.05
2024-02-15T01:49:13.138Z,9.07
2024-02-15T01:51:41.972Z,9.23
2024-02-15T01:54:10.156Z,10.32
2024-02-15T01:56:38.020Z,9.20
2024-02-15T01:59:05.963Z,9.25
2024-02-15T02:01:36.307Z,9.52
2024-02-15T02:04:04.350Z,10.20
2024-02-15T02:06:32.213Z,9.45
2024-02-15T02:08:59.574Z,8.75
2024-02-15T02:11:27.130Z,9.18
2024-02-15T02:13:54.390Z,9.25
2024-02-15T02:16:28.254Z,9.27
2024-02-15T02:18:59.688Z,10.13
2024-02-15T02:21:30.455Z,9.10
2024-02-15T02:23:59.060Z,10.27
2024-02-15T02:26:29.711Z,10.38
2024-02-15T02:28:57.202Z,10.05
2024-02-15T02:31:24.505Z,9.48
2024-02-15T02:33:54.640Z,9.75
2024-02-15T02:36:22.627Z,9.80
2024-02-15T02:38:53.111Z,9.50
2024-02-15T02:41:20.794Z,8.93
2024-02-15T02:43:48.103Z,9.52
2024-02-15T02:46:15.954Z,10.10
2024-02-15T02:48:43.390Z,9.25
2024-02-15T02:51:10.877Z,9.02
2024-02-15T02:53:38.136Z,10.45
2024-02-15T02:56:05.688Z,9.55
2024-02-15T02:58:33.009Z,10.35
2024-02-15T03:01:01.833Z,9.85
2024-02-15T03:03:29.175Z,10.23
2024-02-15T03:05:56.581Z,10.25
2024-02-15T03:08:25.204Z,9.82
2024-02-15T03:10:52.898Z,9.40
2024-02-15T03:13:21.871Z,10.18
2024-02-15T03:15:49.128Z,10.00
2024-02-15T03:18:19.296Z,10.25
2024-02-15T03:20:46.607Z,10.15
2024-02-15T03:23:13.878Z,10.82
2024-02-15T03:25:41.189Z,10.57
2024-02-15T03:28:08.349Z,10.95
2024-02-15T03:30:36.188Z,10.75
2024-02-15T03:33:07.426Z,10.35
2024-02-15T03:35:35.556Z,10.50
2024-02-15T03:38:02.799Z,10.43
2024-02-15T03:40:31.714Z,10.35
2024-02-15T03:42:59.280Z,10.25
2024-02-15T03:45:27.388Z,9.52
2024-02-15T03:47:56.835Z,9.60
2024-02-15T03:50:24.511Z,10.40
2024-02-15T03:52:52.923Z,9.18
2024-02-15T03:55:20.964Z,9.68
2024-02-15T03:57:48.412Z,9.13
2024-02-15T04:00:22.814Z,9.30
2024-02-15T04:02:51.927Z,9.07
2024-02-15T04:05:20.457Z,9.40
2024-02-15T04:07:47.973Z,10.07
2024-02-15T04:10:15.431Z,8.70
2024-02-15T04:12:51.475Z,9.20
2024-02-15T04:15:19.729Z,9.13
2024-02-15T04:17:47.535Z,8.63
2024-02-15T04:20:17.743Z,9.40
2024-02-15T04:22:48.922Z,9.10
2024-02-15T04:25:18.885Z,8.95
2024-02-15T04:27:53.321Z,9.27
2024-02-15T04:30:21.419Z,9.43
2024-02-15T04:32:49.102Z,7.95
2024-02-15T04:35:16.671Z,9.20
2024-02-15T04:37:44.143Z,9.15
2024-02-15T04:40:12.684Z,8.80
2024-02-15T04:42:42.266Z,8.80
2024-02-15T04:45:12.148Z,9.00
2024-02-15T04:47:53.919Z,9.25
2024-02-15T04:50:22.188Z,8.98
2024-02-15T04:52:51.114Z,8.27
2024-02-15T04:55:19.321Z,9.35
2024-02-15T04:57:50.200Z,9.23
2024-02-15T05:00:22.564Z,8.20
2024-02-15T05:02:50.824Z,8.70
2024-02-15T05:05:18.800Z,8.98
2024-02-15T05:07:46.086Z,8.90
2024-02-15T05:10:13.834Z,8.93
2024-02-15T05:12:41.701Z,9.18
2024-02-15T05:15:13.811Z,9.48
2024-02-15T05:17:44.851Z,8.40
2024-02-15T05:20:14.818Z,8.85
2024-02-15T05:22:50.021Z,7.88
2024-02-15T05:25:25.925Z,8.95
2024-02-15T05:27:56.662Z,9.52
2024-02-15T05:30:26.003Z,11.15
2024-02-15T05:32:55.197Z,9.82
2024-02-15T05:35:23.324Z,10.68
2024-02-15T05:37:50.653Z,10.00
2024-02-15T05:40:18.896Z,9.93
2024-02-15T05:42:47.468Z,9.02
2024-02-15T05:45:27.092Z,9.75
2024-02-15T05:47:54.795Z,9.60
2024-02-15T05:50:22.850Z,8.55
2024-02-15T05:52:50.397Z,9.07
2024-02-15T05:55:18.438Z,9.05
2024-02-15T05:57:45.929Z,8.77
2024-02-15T06:00:21.728Z,9.75
2024-02-15T06:02:51.472Z,9.20
2024-02-15T06:05:20.005Z,9.15
2024-02-15T06:07:48.293Z,9.13
2024-02-15T06:10:16.534Z,8.93
2024-02-15T06:12:44.332Z,9.10
2024-02-15T06:15:16.934Z,8.65
2024-02-15T06:17:48.293Z,9.23
2024-02-15T06:20:19.653Z,9.07
2024-02-15T06:22:48.068Z,9.40
2024-02-15T06:25:16.583Z,10.32
2024-02-15T06:27:44.355Z,9.23
2024-02-15T06:30:31.023Z,9.70
2024-02-15T06:33:20.139Z,8.90
2024-02-15T06:36:06.509Z,9.10
2024-02-15T06:38:52.727Z,9.32
2024-02-15T06:41:21.613Z,8.18
2024-02-15T06:43:49.826Z,9.57
2024-02-15T06:46:17.015Z,9.50
2024-02-15T06:48:47.831Z,9.52
2024-02-15T06:51:16.829Z,8.68
2024-02-15T06:53:44.611Z,9.35
2024-02-15T06:56:13.066Z,7.95
2024-02-15T06:58:41.719Z,9.23
2024-02-15T07:01:09.638Z,10.02
2024-02-15T07:03:37.279Z,9.80
2024-02-15T07:06:05.075Z,9.43
2024-02-15T07:08:33.278Z,9.82
2024-02-15T07:11:00.655Z,9.80
2024-02-15T07:13:28.241Z,10.40
2024-02-15T07:15:55.598Z,9.85
2024-02-15T07:18:27.880Z,10.75
2024-02-15T07:20:59.787Z,11.27
2024-02-15T07:23:27.191Z,9.60
2024-02-15T07:25:55.314Z,10.65
2024-02-15T07:28:22.738Z,10.55
2024-02-15T07:30:57.009Z,10.50
2024-02-15T07:33:25.196Z,10.30
2024-02-15T07:35:53.024Z,10.60
2024-02-15T07:38:24.049Z,10.88
2024-02-15T07:40:51.487Z,10.05
2024-02-15T07:43:18.794Z,9.55
2024-02-15T07:45:48.845Z,9.45
2024-02-15T07:48:18.924Z,10.18
2024-02-15T07:50:46.651Z,11.10
2024-02-15T07:53:15.066Z,10.05
2024-02-15T07:55:43.295Z,10.57
2024-02-15T07:58:10.594Z,10.10
2024-02-15T08:00:39.377Z,10.70
2024-02-15T08:03:06.914Z,10.60
2024-02-15T08:05:34.902Z,9.70
2024-02-15T08:08:02.500Z,10.73
2024-02-15T08:10:30.138Z,10.35
2024-02-15T08:12:59.601Z,9.90
2024-02-15T08:15:30.957Z,10.50
2024-02-15T08:17:58.729Z,11.00
2024-02-15T08:20:32.936Z,10.20
2024-02-15T08:23:00.283Z,10.07
2024-02-15T08:25:33.296Z,10.05
2024-02-15T08:28:06.492Z,10.63
2024-02-15T08:30:34.394Z,10.48
2024-02-15T08:33:02.303Z,9.77
2024-02-15T08:35:29.830Z,10.13
2024-02-15T08:38:00.478Z,9.30
2024-02-15T08:40:29.236Z,10.20
2024-02-15T08:42:57.496Z,9.50
2024-02-15T08:45:28.053Z,9.50
2024-02-15T08:47:55.588Z,9.50
2024-02-15T08:50:24.844Z,9.38
2024-02-15T08:52:54.240Z,9.25
2024-02-15T08:55:25.441Z,9.35
2024-02-15T08:57:54.019Z,9.23
2024-02-15T09:00:27.960Z,8.95
2024-02-15T09:02:55.662Z,8.70
2024-02-15T09:05:23.504Z,8.68
2024-02-15T09:07:54.010Z,9.00
2024-02-15T09:10:23.828Z,8.02
2024-02-15T09:12:51.412Z,8.27
2024-02-15T09:15:20.904Z,7.65
2024-02-15T09:17:49.259Z,8.80
2024-02-15T09:20:20.440Z,7.60
2024-02-15T09:22:55.532Z,7.53
2024-02-15T09:25:24.636Z,8.18
2024-02-15T09:27:52.347Z,8.60
2024-02-15T09:30:26.584Z,8.88
2024-02-15T09:35:24.435Z,7.70
2024-02-15T09:37:51.968Z,7.32
2024-02-15T09:40:20.619Z,7.40
2024-02-15T09:42:48.763Z,5.50
2024-02-15T09:45:18.612Z,5.82
2024-02-15T09:47:46.643Z,5.65
2024-02-15T09:50:18.555Z,5.68
2024-02-15T09:52:50.025Z,5.55
2024-02-15T09:55:17.935Z,5.35
2024-02-15T09:57:50.323Z,5.97
2024-02-15T10:00:18.692Z,5.20
2024-02-15T10:02:53.918Z,6.18
2024-02-15T10:05:22.332Z,5.70
2024-02-15T10:07:49.827Z,6.50
2024-02-15T10:10:21.804Z,6.22
2024-02-15T10:12:50.293Z,5.93
2024-02-15T10:15:34.226Z,5.72
2024-02-15T10:18:10.125Z,5.10
2024-02-15T10:20:39.832Z,5.68
2024-02-15T10:23:11.153Z,6.03
2024-02-15T10:25:43.136Z,6.28
2024-02-15T10:28:12.360Z,6.95
2024-02-15T10:30:47.179Z,6.15
2024-02-15T10:33:30.387Z,4.82
2024-02-15T10:36:10.664Z,6.50
2024-02-15T10:38:38.555Z,5.63
2024-02-15T10:41:07.290Z,2.92
2024-02-15T10:43:36.243Z,2.65
2024-02-15T10:46:04.207Z,2.53
2024-02-15T10:48:31.616Z,2.28
2024-02-15T10:51:01.832Z,2.47
2024-02-15T10:53:33.674Z,2.28
2024-02-15T10:56:20.908Z,2.38
2024-02-15T10:59:17.793Z,4.38
2024-02-15T11:01:49.631Z,5.57
2024-02-15T11:04:17.175Z,2.60
2024-02-15T11:06:45.670Z,2.00
2024-02-15T11:09:15.379Z,2.30
2024-02-15T11:11:42.821Z,2.10
2024-02-15T11:14:33.486Z,2.30
2024-02-15T11:17:06.572Z,2.28
2024-02-15T11:19:40.760Z,2.22
2024-02-15T11:24:50.804Z,2.20
2024-02-15T11:27:28.355Z,2.08
2024-02-15T11:29:57.694Z,2.40
2024-02-15T11:32:51.778Z,2.55
2024-02-15T11:35:27.471Z,2.43
2024-02-15T11:37:59.465Z,2.67
2024-02-15T11:40:43.178Z,2.53
2024-02-15T11:43:12.201Z,3.00
2024-02-15T11:45:42.751Z,2.75
2024-02-15T11:48:15.128Z,2.33
2024-02-15T11:50:43.265Z,2.53
2024-02-15T11:53:11.939Z,2.60
2024-02-15T11:55:41.409Z,2.50
2024-02-15T11:58:09.815Z,2.63
2024-02-15T12:00:56.773Z,2.30
2024-02-15T12:03:52.258Z,2.25
2024-02-15T12:06:48.302Z,2.13
2024-02-15T12:09:38.011Z,2.20
2024-02-15T12:12:28.351Z,2.08
2024-02-15T12:15:23.567Z,2.35
2024-02-15T12:18:10.116Z,2.70
2024-02-15T12:20:37.694Z,2.58
2024-02-15T12:23:08.457Z,2.60
2024-02-15T12:25:36.886Z,2.55
2024-02-15T12:28:05.875Z,2.65
2024-02-15T12:30:41.874Z,2.30
2024-02-15T12:33:21.793Z,2.70
2024-02-15T12:35:52.422Z,2.78
2024-02-15T12:38:21.072Z,3.47
2024-02-15T12:40:51.724Z,2.40
2024-02-15T12:43:19.265Z,2.72
2024-02-15T12:45:50.068Z,2.28
2024-02-15T12:48:17.490Z,2.50
2024-02-15T12:50:48.200Z,2.30
2024-02-15T12:53:24.143Z,2.33
2024-02-15T12:55:58.325Z,2.05
2024-02-15T12:58:27.732Z,2.17
2024-02-15T13:01:00.425Z,2.13
2024-02-15T13:03:27.874Z,2.10
2024-02-15T13:05:57.125Z,2.03
2024-02-15T13:08:25.888Z,2.63
2024-02-15T13:10:53.149Z,2.42
2024-02-15T13:13:22.860Z,2.30
2024-02-15T13:15:53.180Z,2.50
2024-02-15T13:18:21.317Z,2.50
2024-02-15T13:20:54.389Z,2.80
2024-02-15T13:23:26.800Z,3.35
2024-02-15T13:25:57.768Z,3.15
2024-02-15T13:28:26.052Z,3.20
2024-02-15T13:30:55.719Z,5.05
2024-02-15T13:33:24.009Z,3.20
2024-02-15T13:35:59.160Z,3.20
2024-02-15T13:38:27.620Z,3.90
2024-02-15T13:40:56.973Z,2.80
2024-02-15T13:43:26.341Z,3.33
2024-02-15T13:45:53.931Z,2.78
2024-02-15T13:48:21.672Z,2.88
2024-02-15T13:50:49.103Z,2.80
2024-02-15T13:53:16.453Z,2.30
2024-02-15T13:55:47.730Z,3.00
2024-02-15T13:58:14.965Z,3.08
2024-02-15T14:00:45.480Z,2.92
2024-02-15T14:03:13.178Z,2.20
2024-02-15T14:05:42.618Z,2.47
2024-02-15T14:08:13.310Z,2.55
2024-02-15T14:10:43.510Z,2.25
2024-02-15T14:13:12.628Z,2.50
2024-02-15T14:15:44.503Z,2.47
2024-02-15T14:18:18.027Z,2.33
2024-02-15T14:20:48.719Z,4.07
2024-02-15T14:23:17.576Z,7.32
2024-02-15T14:25:46.169Z,7.82
2024-02-15T14:28:16.977Z,6.88
2024-02-15T14:31:06.602Z,8.32
2024-02-15T14:33:36.173Z,7.65
2024-02-15T14:36:05.725Z,8.13
2024-02-15T14:38:38.083Z,8.20
2024-02-15T14:41:08.610Z,8.60
2024-02-15T14:43:36.851Z,8.63
2024-02-15T14:46:06.771Z,8.68
2024-02-15T14:48:35.197Z,9.07
2024-02-15T14:51:05.824Z,8.25
2024-02-15T14:53:34.428Z,7.60
2024-02-15T14:56:05.910Z,8.80
2024-02-15T14:58:36.234Z,9.70
2024-02-15T15:01:10.691Z,8.88
2024-02-15T15:03:39.423Z,9.48
2024-02-15T15:06:27.683Z,8.85
2024-02-15T15:09:17.252Z,8.32
2024-02-15T15:12:03.837Z,9.25
2024-02-15T15:14:31.440Z,8.65
2024-02-15T15:17:00.009Z,9.13
2024-02-15T15:19:29.124Z,10.18
2024-02-15T15:21:56.662Z,8.98
2024-02-15T15:24:24.248Z,8.50
2024-02-15T15:26:51.675Z,7.90
2024-02-15T15:29:22.013Z,8.60
2024-02-15T15:31:50.460Z,8.00
2024-02-15T15:34:17.955Z,8.18
2024-02-15T15:36:45.268Z,8.02
2024-02-15T15:39:12.496Z,8.38
2024-02-15T15:41:40.255Z,7.88
2024-02-15T15:44:07.679Z,7.63
2024-02-15T15:46:37.447Z,8.13
2024-02-15T15:49:06.827Z,8.10
2024-02-15T15:51:34.725Z,8.75
2024-02-15T15:54:02.008Z,8.13
2024-02-15T15:56:31.282Z,8.20
2024-02-15T15:58:58.781Z,8.18
2024-02-15T16:01:26.689Z,8.48
2024-02-15T16:03:55.910Z,8.05
2024-02-15T16:06:24.946Z,8.75
2024-02-15T16:08:52.722Z,8.18
2024-02-15T16:11:20.228Z,8.13
2024-02-15T16:13:49.151Z,7.90
2024-02-15T16:16:16.624Z,8.75
2024-02-15T16:18:45.187Z,8.50
2024-02-15T16:21:20.201Z,9.13
2024-02-15T16:23:47.773Z,9.07
2024-02-15T16:26:15.226Z,9.40
2024-02-15T16:28:49.370Z,9.60
2024-02-15T16:31:16.936Z,9.57
2024-02-15T16:33:44.476Z,9.13
2024-02-15T16:36:11.900Z,10.23
2024-02-15T16:38:42.151Z,9.57
2024-02-15T16:41:09.520Z,8.63
2024-02-15T16:43:51.853Z,9.00
2024-02-15T16:46:19.395Z,9.55
2024-02-15T16:48:48.209Z,9.18
2024-02-15T16:51:16.484Z,9.95
2024-02-15T16:53:45.011Z,9.30
2024-02-15T16:56:26.455Z,10.00
2024-02-15T16:58:54.260Z,10.27
2024-02-15T17:01:22.438Z,10.00
2024-02-15T17:03:51.791Z,10.82
2024-02-15T17:06:22.095Z,11.07
2024-02-15T17:08:56.074Z,11.45
2024-02-15T17:11:24.076Z,10.88
2024-02-15T17:13:55.326Z,10.85
2024-02-15T17:16:22.978Z,10.90
2024-02-15T17:18:58.152Z,11.30
2024-02-15T17:21:29.015Z,11.80
2024-02-15T17:24:00.408Z,11.25
2024-02-15T17:26:27.814Z,11.45
2024-02-15T17:28:55.108Z,12.02
2024-02-15T17:31:28.678Z,12.20
2024-02-15T17:33:56.288Z,11.25
2024-02-15T17:36:24.952Z,10.95
2024-02-15T17:38:53.469Z,9.63
2024-02-15T17:41:20.913Z,9.98
2024-02-15T17:43:48.811Z,10.07
2024-02-15T17:46:18.497Z,9.73
2024-02-15T17:48:45.858Z,9.95
2024-02-15T17:51:13.088Z,9.23
2024-02-15T17:53:43.764Z,9.40
2024-02-15T17:56:15.292Z,9.50
2024-02-15T17:58:46.019Z,9.48
2024-02-15T18:01:18.083Z,9.43
2024-02-15T18:03:47.458Z,8.85
2024-02-15T18:06:17.757Z,8.05
2024-02-15T18:08:47.202Z,8.27
2024-02-15T18:11:22.358Z,8.25
2024-02-15T18:13:52.022Z,8.65
2024-02-15T18:16:27.658Z,8.98
2024-02-15T18:18:57.468Z,9.38
2024-02-15T18:21:28.022Z,10.48
2024-02-15T18:24:10.753Z,11.23
2024-02-15T18:26:41.302Z,10.40
2024-02-15T18:29:14.926Z,11.30
2024-02-15T18:31:42.332Z,10.13
2024-02-15T18:34:10.093Z,9.68
2024-02-15T18:36:39.094Z,10.27
2024-02-15T18:39:12.560Z,10.60
2024-02-15T18:41:41.106Z,12.15
2024-02-15T18:44:12.773Z,9.95
2024-02-15T18:46:41.966Z,13.43
2024-02-15T18:49:23.285Z,12.75
2024-02-15T18:52:20.525Z,11.18
2024-02-15T18:54:52.529Z,9.35
2024-02-15T18:57:25.493Z,10.25
2024-02-15T18:59:57.383Z,11.63
2024-02-15T19:02:27.814Z,9.63
2024-02-15T19:04:55.219Z,10.00
2024-02-15T19:07:22.770Z,10.77
2024-02-15T19:09:51.140Z,9.43
2024-02-15T19:12:18.529Z,10.73
2024-02-15T19:14:45.798Z,9.45
2024-02-15T19:17:13.249Z,10.18
2024-02-15T19:19:41.122Z,9.30
2024-02-15T19:22:09.179Z,9.23
2024-02-15T19:24:36.966Z,9.40
2024-02-15T19:27:04.682Z,9.63
2024-02-15T19:29:34.879Z,9.85
2024-02-15T19:32:02.383Z,10.55
2024-02-15T19:34:30.214Z,8.90
2024-02-15T19:37:11.470Z,8.80
2024-02-15T19:39:43.155Z,8.68
2024-02-15T19:42:20.491Z,8.18
2024-02-15T19:44:50.808Z,7.93
2024-02-15T19:47:21.717Z,9.02
2024-02-15T19:49:49.254Z,8.18
2024-02-15T19:52:19.024Z,8.20
2024-02-15T19:54:50.744Z,10.80
2024-02-15T19:57:18.439Z,9.20
2024-02-15T19:59:55.415Z,10.13
2024-02-15T20:02:22.989Z,8.02
2024-02-15T20:04:53.214Z,7.85
2024-02-15T20:07:31.577Z,9.55
2024-02-15T20:09:59.100Z,9.70
2024-02-15T20:12:27.179Z,7.57
2024-02-15T20:14:54.659Z,8.20
2024-02-15T20:17:22.724Z,7.70
2024-02-15T20:20:01.121Z,8.23
2024-02-15T20:22:28.827Z,8.40
2024-02-15T20:25:06.304Z,8.40
2024-02-15T20:27:34.609Z,8.43
2024-02-15T20:30:02.909Z,8.82
2024-02-15T20:32:31.161Z,8.63
2024-02-15T20:34:59.935Z,9.60
2024-02-15T20:37:27.504Z,9.43
2024-02-15T20:39:55.185Z,9.52
2024-02-15T20:42:22.869Z,9.68
2024-02-15T20:44:52.389Z,10.15
2024-02-15T20:47:24.880Z,8.75
2024-02-15T20:49:52.279Z,8.90
2024-02-15T20:52:19.578Z,8.32
2024-02-15T20:54:46.833Z,8.75
2024-02-15T20:57:20.527Z,9.07
2024-02-15T20:59:56.106Z,8.50
2024-02-15T21:02:24.794Z,8.20
2024-02-15T21:04:53.644Z,8.07
2024-02-15T21:07:22.522Z,8.43
2024-02-15T21:09:54.302Z,7.57
2024-02-15T21:12:26.297Z,8.45
2024-02-15T21:14:56.183Z,7.95
2024-02-15T21:17:26.505Z,7.25
2024-02-15T21:19:56.054Z,7.38
2024-02-15T21:22:23.981Z,7.35
2024-02-15T21:24:51.335Z,7.55
2024-02-15T21:27:21.966Z,8.00
2024-02-15T21:29:50.868Z,6.68
2024-02-15T21:32:19.289Z,7.47
2024-02-15T21:34:46.594Z,6.82
2024-02-15T21:37:15.353Z,6.50
2024-02-15T21:39:43.155Z,6.05
2024-02-15T21:42:10.526Z,6.20
2024-02-15T21:44:38.165Z,6.28
2024-02-15T21:47:05.459Z,6.30
2024-02-15T21:49:32.876Z,7.13
2024-02-15T21:52:00.415Z,7.10
2024-02-15T21:54:27.756Z,6.97
2024-02-15T21:56:57.652Z,6.93
2024-02-15T21:59:27.877Z,7.97
2024-02-15T22:01:58.169Z,7.60
2024-02-15T22:04:25.868Z,7.65
2024-02-15T22:06:53.482Z,7.15
2024-02-15T22:09:21.112Z,6.60
2024-02-15T22:11:48.498Z,7.18
2024-02-15T22:14:15.786Z,5.53
2024-02-15T22:16:43.202Z,6.20
2024-02-15T22:19:10.884Z,5.88
2024-02-15T22:21:38.322Z,6.32
2024-02-15T22:24:06.122Z,5.50
2024-02-15T22:26:33.558Z,5.65
2024-02-15T22:29:00.876Z,5.25
2024-02-15T22:31:29.778Z,5.07
2024-02-15T22:33:58.037Z,5.35
2024-02-15T22:36:27.168Z,4.80
2024-02-15T22:38:55.027Z,4.97
2024-02-15T22:41:22.625Z,5.20
2024-02-15T22:43:52.452Z,5.32
2024-02-15T22:46:20.705Z,5.20
2024-02-15T22:48:49.629Z,4.70
2024-02-15T22:51:17.028Z,4.63
2024-02-15T22:53:46.443Z,5.10
2024-02-15T22:56:14.151Z,5.07
2024-02-15T22:58:41.928Z,5.60
2024-02-15T23:01:13.083Z,5.03
2024-02-15T23:03:41.291Z,5.63
2024-02-15T23:06:11.665Z,6.13
2024-02-15T23:08:39.746Z,6.03
2024-02-15T23:11:07.856Z,5.95
2024-02-15T23:13:35.813Z,6.10
2024-02-15T23:16:05.476Z,6.28
2024-02-15T23:18:33.246Z,6.15
2024-02-15T23:21:01.797Z,6.57
2024-02-15T23:23:29.183Z,6.18
2024-02-15T23:25:56.487Z,6.55
2024-02-15T23:28:24.203Z,6.38
2024-02-15T23:30:51.487Z,6.75
2024-02-15T23:33:22.804Z,7.15
2024-02-15T23:36:17.407Z,6.40
2024-02-15T23:39:05.127Z,6.00
2024-02-15T23:41:35.242Z,6.47
2024-02-15T23:44:05.680Z,6.82
2024-02-15T23:46:35.618Z,6.15
2024-02-15T23:49:05.963Z,5.70
2024-02-15T23:51:36.343Z,5.65
2024-02-15T23:54:03.925Z,6.93
2024-02-15T23:56:31.301Z,6.18
2024-02-15T23:58:59.871Z,5.88
